sensor_id;sensor_type;location;lat;lon;timestamp;temperature;humidity
59025;DHT22;44806;48.008;13.666;2022-09-24T00:00:44;9.60;99.90
59025;DHT22;44806;48.008;13.666;2022-09-24T00:03:17;9.50;99.90
59025;DHT22;44806;48.008;13.666;2022-09-24T00:05:46;9.50;99.90
59025;DHT22;44806;48.008;13.666;2022-09-24T00:08:14;9.60;99.90
59025;DHT22;44806;48.008;13.666;2022-09-24T00:10:45;9.60;99.90
59025;DHT22;44806;48.008;13.666;2022-09-24T00:13:15;9.70;99.90
59025;DHT22;44806;48.008;13.666;2022-09-24T00:15:44;9.70;99.90
59025;DHT22;44806;48.008;13.666;2022-09-24T00:18:11;9.80;99.90
59025;DHT22;44806;48.008;13.666;2022-09-24T00:20:39;9.80;99.90
59025;DHT22;44806;48.008;13.666;2022-09-24T00:23:08;9.80;99.90
59025;DHT22;44806;48.008;13.666;2022-09-24T00:25:39;9.70;99.90
59025;DHT22;44806;48.008;13.666;2022-09-24T00:28:25;9.70;99.90
59025;DHT22;44806;48.008;13.666;2022-09-24T00:30:53;9.50;99.90
59025;DHT22;44806;48.008;13.666;2022-09-24T00:33:22;9.50;99.90
59025;DHT22;44806;48.008;13.666;2022-09-24T00:35:49;9.40;99.90
59025;DHT22;44806;48.008;13.666;2022-09-24T00:38:17;9.30;99.90
59025;DHT22;44806;48.008;13.666;2022-09-24T00:40:44;9.30;99.90
59025;DHT22;44806;48.008;13.666;2022-09-24T00:43:23;9.30;99.90
59025;DHT22;44806;48.008;13.666;2022-09-24T00:45:55;9.40;99.90
59025;DHT22;44806;48.008;13.666;2022-09-24T00:48:24;9.40;99.90
59025;DHT22;44806;48.008;13.666;2022-09-24T00:50:51;9.50;99.90
59025;DHT22;44806;48.008;13.666;2022-09-24T00:53:20;9.50;99.90
59025;DHT22;44806;48.008;13.666;2022-09-24T00:55:52;9.50;99.90
59025;DHT22;44806;48.008;13.666;2022-09-24T00:58:21;9.50;99.90
59025;DHT22;44806;48.008;13.666;2022-09-24T01:00:53;9.50;99.90
59025;DHT22;44806;48.008;13.666;2022-09-24T01:03:24;9.50;99.90
59025;DHT22;44806;48.008;13.666;2022-09-24T01:05:53;9.50;99.90
59025;DHT22;44806;48.008;13.666;2022-09-24T01:08:20;9.50;99.90
59025;DHT22;44806;48.008;13.666;2022-09-24T01:10:59;9.50;99.90
59025;DHT22;44806;48.008;13.666;2022-09-24T01:13:52;9.50;99.90
59025;DHT22;44806;48.008;13.666;2022-09-24T01:16:29;9.50;99.90
59025;DHT22;44806;48.008;13.666;2022-09-24T01:19:07;9.50;99.90
59025;DHT22;44806;48.008;13.666;2022-09-24T01:21:40;9.60;99.90
59025;DHT22;44806;48.008;13.666;2022-09-24T01:24:43;9.60;99.90
59025;DHT22;44806;48.008;13.666;2022-09-24T01:27:16;9.60;99.90
59025;DHT22;44806;48.008;13.666;2022-09-24T01:29:49;9.50;99.90
59025;DHT22;44806;48.008;13.666;2022-09-24T01:32:22;9.40;99.90
59025;DHT22;44806;48.008;13.666;2022-09-24T01:34:54;9.40;99.90
59025;DHT22;44806;48.008;13.666;2022-09-24T01:37:25;9.30;99.90
59025;DHT22;44806;48.008;13.666;2022-09-24T01:39:55;9.30;99.90
59025;DHT22;44806;48.008;13.666;2022-09-24T01:42:26;9.30;99.90
59025;DHT22;44806;48.008;13.666;2022-09-24T01:44:56;9.40;99.90
59025;DHT22;44806;48.008;13.666;2022-09-24T01:47:28;9.40;99.90
59025;DHT22;44806;48.008;13.666;2022-09-24T01:49:56;9.40;99.90
59025;DHT22;44806;48.008;13.666;2022-09-24T01:52:26;9.30;99.90
59025;DHT22;44806;48.008;13.666;2022-09-24T01:54:55;9.40;99.90
59025;DHT22;44806;48.008;13.666;2022-09-24T01:57:25;9.40;99.90
59025;DHT22;44806;48.008;13.666;2022-09-24T01:59:58;9.50;99.90
59025;DHT22;44806;48.008;13.666;2022-09-24T02:02:30;9.50;99.90
59025;DHT22;44806;48.008;13.666;2022-09-24T02:05:02;9.40;99.90
59025;DHT22;44806;48.008;13.666;2022-09-24T02:07:34;9.40;99.90
59025;DHT22;44806;48.008;13.666;2022-09-24T02:10:05;9.40;99.90
59025;DHT22;44806;48.008;13.666;2022-09-24T02:12:35;9.30;99.90
59025;DHT22;44806;48.008;13.666;2022-09-24T02:15:10;9.30;99.90
59025;DHT22;44806;48.008;13.666;2022-09-24T02:17:39;9.40;99.90
59025;DHT22;44806;48.008;13.666;2022-09-24T02:20:15;9.30;99.90
59025;DHT22;44806;48.008;13.666;2022-09-24T02:22:44;9.20;99.90
59025;DHT22;44806;48.008;13.666;2022-09-24T02:25:15;9.20;99.90
59025;DHT22;44806;48.008;13.666;2022-09-24T02:27:44;9.20;99.90
59025;DHT22;44806;48.008;13.666;2022-09-24T02:30:13;9.20;99.90
59025;DHT22;44806;48.008;13.666;2022-09-24T02:32:41;9.20;99.90
59025;DHT22;44806;48.008;13.666;2022-09-24T02:35:11;9.20;99.90
59025;DHT22;44806;48.008;13.666;2022-09-24T02:37:39;9.20;99.90
59025;DHT22;44806;48.008;13.666;2022-09-24T02:40:11;9.30;99.90
59025;DHT22;44806;48.008;13.666;2022-09-24T02:42:40;9.30;99.90
59025;DHT22;44806;48.008;13.666;2022-09-24T02:45:08;9.30;99.90
59025;DHT22;44806;48.008;13.666;2022-09-24T02:47:37;9.40;99.90
59025;DHT22;44806;48.008;13.666;2022-09-24T02:50:05;9.40;99.90
59025;DHT22;44806;48.008;13.666;2022-09-24T02:52:32;9.40;99.90
59025;DHT22;44806;48.008;13.666;2022-09-24T02:55:00;9.30;99.90
59025;DHT22;44806;48.008;13.666;2022-09-24T02:57:27;9.30;99.90
59025;DHT22;44806;48.008;13.666;2022-09-24T02:59:54;9.30;99.90
59025;DHT22;44806;48.008;13.666;2022-09-24T03:02:22;9.30;99.90
59025;DHT22;44806;48.008;13.666;2022-09-24T03:04:50;9.30;99.90
59025;DHT22;44806;48.008;13.666;2022-09-24T03:07:17;9.30;99.90
59025;DHT22;44806;48.008;13.666;2022-09-24T03:09:46;9.30;99.90
59025;DHT22;44806;48.008;13.666;2022-09-24T03:12:13;9.30;99.90
59025;DHT22;44806;48.008;13.666;2022-09-24T03:14:40;9.30;99.90
59025;DHT22;44806;48.008;13.666;2022-09-24T03:17:07;9.40;99.90
59025;DHT22;44806;48.008;13.666;2022-09-24T03:19:35;9.30;99.90
59025;DHT22;44806;48.008;13.666;2022-09-24T03:22:04;9.30;99.90
59025;DHT22;44806;48.008;13.666;2022-09-24T03:24:31;9.40;99.90
59025;DHT22;44806;48.008;13.666;2022-09-24T03:26:58;9.40;99.90
59025;DHT22;44806;48.008;13.666;2022-09-24T03:29:25;9.30;99.90
59025;DHT22;44806;48.008;13.666;2022-09-24T03:32:06;9.30;99.90
59025;DHT22;44806;48.008;13.666;2022-09-24T03:34:33;9.30;99.90
59025;DHT22;44806;48.008;13.666;2022-09-24T03:37:04;9.30;99.90
59025;DHT22;44806;48.008;13.666;2022-09-24T03:39:31;9.30;99.90
59025;DHT22;44806;48.008;13.666;2022-09-24T03:41:59;9.30;99.90
59025;DHT22;44806;48.008;13.666;2022-09-24T03:44:26;9.30;99.90
59025;DHT22;44806;48.008;13.666;2022-09-24T03:46:53;9.30;99.90
59025;DHT22;44806;48.008;13.666;2022-09-24T03:49:20;9.30;99.90
59025;DHT22;44806;48.008;13.666;2022-09-24T03:51:48;9.30;99.90
59025;DHT22;44806;48.008;13.666;2022-09-24T03:54:16;9.30;99.90
59025;DHT22;44806;48.008;13.666;2022-09-24T03:56:44;9.30;99.90
59025;DHT22;44806;48.008;13.666;2022-09-24T03:59:11;9.30;99.90
59025;DHT22;44806;48.008;13.666;2022-09-24T04:01:38;9.30;99.90
59025;DHT22;44806;48.008;13.666;2022-09-24T04:04:05;9.20;99.90
59025;DHT22;44806;48.008;13.666;2022-09-24T04:06:32;9.20;99.90
59025;DHT22;44806;48.008;13.666;2022-09-24T04:08:59;9.20;99.90
59025;DHT22;44806;48.008;13.666;2022-09-24T04:11:28;9.20;99.90
59025;DHT22;44806;48.008;13.666;2022-09-24T04:13:55;9.20;99.90
59025;DHT22;44806;48.008;13.666;2022-09-24T04:16:23;9.20;99.90
59025;DHT22;44806;48.008;13.666;2022-09-24T04:18:50;9.10;99.90
59025;DHT22;44806;48.008;13.666;2022-09-24T04:21:21;9.10;99.90
59025;DHT22;44806;48.008;13.666;2022-09-24T04:23:48;9.10;99.90
59025;DHT22;44806;48.008;13.666;2022-09-24T04:26:15;9.10;99.90
59025;DHT22;44806;48.008;13.666;2022-09-24T04:28:44;9.10;99.90
59025;DHT22;44806;48.008;13.666;2022-09-24T04:31:11;9.10;99.90
59025;DHT22;44806;48.008;13.666;2022-09-24T04:33:38;9.10;99.90
59025;DHT22;44806;48.008;13.666;2022-09-24T04:36:06;9.10;99.90
59025;DHT22;44806;48.008;13.666;2022-09-24T04:38:33;9.10;99.90
59025;DHT22;44806;48.008;13.666;2022-09-24T04:41:05;9.00;99.90
59025;DHT22;44806;48.008;13.666;2022-09-24T04:43:32;9.00;99.90
59025;DHT22;44806;48.008;13.666;2022-09-24T04:46:00;8.90;99.90
59025;DHT22;44806;48.008;13.666;2022-09-24T04:48:28;8.90;99.90
59025;DHT22;44806;48.008;13.666;2022-09-24T04:50:55;8.90;99.90
59025;DHT22;44806;48.008;13.666;2022-09-24T04:53:23;8.90;99.90
59025;DHT22;44806;48.008;13.666;2022-09-24T04:55:50;8.90;99.90
59025;DHT22;44806;48.008;13.666;2022-09-24T04:58:18;8.80;99.90
59025;DHT22;44806;48.008;13.666;2022-09-24T05:00:45;8.90;99.90
59025;DHT22;44806;48.008;13.666;2022-09-24T05:03:13;8.90;99.90
59025;DHT22;44806;48.008;13.666;2022-09-24T05:05:40;8.90;99.90
59025;DHT22;44806;48.008;13.666;2022-09-24T05:08:08;8.80;99.90
59025;DHT22;44806;48.008;13.666;2022-09-24T05:10:35;8.90;99.90
59025;DHT22;44806;48.008;13.666;2022-09-24T05:13:02;8.90;99.90
59025;DHT22;44806;48.008;13.666;2022-09-24T05:15:29;8.90;99.90
59025;DHT22;44806;48.008;13.666;2022-09-24T05:17:56;8.90;99.90
59025;DHT22;44806;48.008;13.666;2022-09-24T05:20:25;8.90;99.90
59025;DHT22;44806;48.008;13.666;2022-09-24T05:22:52;8.90;99.90
59025;DHT22;44806;48.008;13.666;2022-09-24T05:25:22;8.90;99.90
59025;DHT22;44806;48.008;13.666;2022-09-24T05:27:51;8.80;99.90
59025;DHT22;44806;48.008;13.666;2022-09-24T05:30:18;8.80;99.90
59025;DHT22;44806;48.008;13.666;2022-09-24T05:32:45;8.90;99.90
59025;DHT22;44806;48.008;13.666;2022-09-24T05:35:14;8.80;99.90
59025;DHT22;44806;48.008;13.666;2022-09-24T05:37:43;8.80;99.90
59025;DHT22;44806;48.008;13.666;2022-09-24T05:40:10;8.90;99.90
59025;DHT22;44806;48.008;13.666;2022-09-24T05:42:59;8.80;99.90
59025;DHT22;44806;48.008;13.666;2022-09-24T05:45:27;8.80;99.90
59025;DHT22;44806;48.008;13.666;2022-09-24T05:47:54;8.80;99.90
59025;DHT22;44806;48.008;13.666;2022-09-24T05:50:21;8.90;99.90
59025;DHT22;44806;48.008;13.666;2022-09-24T05:52:50;8.90;99.90
59025;DHT22;44806;48.008;13.666;2022-09-24T05:55:17;8.90;99.90
59025;DHT22;44806;48.008;13.666;2022-09-24T05:57:44;9.00;99.90
59025;DHT22;44806;48.008;13.666;2022-09-24T06:00:11;9.00;99.90
59025;DHT22;44806;48.008;13.666;2022-09-24T06:02:39;9.00;99.90
59025;DHT22;44806;48.008;13.666;2022-09-24T06:05:07;9.00;99.90
59025;DHT22;44806;48.008;13.666;2022-09-24T06:07:34;9.00;99.90
59025;DHT22;44806;48.008;13.666;2022-09-24T06:10:03;9.10;99.90
59025;DHT22;44806;48.008;13.666;2022-09-24T06:12:31;9.10;99.90
59025;DHT22;44806;48.008;13.666;2022-09-24T06:14:59;9.10;99.90
59025;DHT22;44806;48.008;13.666;2022-09-24T06:17:26;9.20;99.90
59025;DHT22;44806;48.008;13.666;2022-09-24T06:19:54;9.20;99.90
59025;DHT22;44806;48.008;13.666;2022-09-24T06:22:22;9.20;99.90
59025;DHT22;44806;48.008;13.666;2022-09-24T06:24:49;9.20;99.90
59025;DHT22;44806;48.008;13.666;2022-09-24T06:27:18;9.30;99.90
59025;DHT22;44806;48.008;13.666;2022-09-24T06:29:45;9.40;99.90
59025;DHT22;44806;48.008;13.666;2022-09-24T06:32:12;9.40;99.90
59025;DHT22;44806;48.008;13.666;2022-09-24T06:34:39;9.50;99.90
59025;DHT22;44806;48.008;13.666;2022-09-24T06:37:07;9.50;99.90
59025;DHT22;44806;48.008;13.666;2022-09-24T06:39:34;9.50;99.90
59025;DHT22;44806;48.008;13.666;2022-09-24T06:42:01;9.60;99.90
59025;DHT22;44806;48.008;13.666;2022-09-24T06:44:33;9.70;99.90
59025;DHT22;44806;48.008;13.666;2022-09-24T06:47:00;9.80;99.90
59025;DHT22;44806;48.008;13.666;2022-09-24T06:49:27;9.90;99.90
59025;DHT22;44806;48.008;13.666;2022-09-24T06:51:55;9.90;99.90
59025;DHT22;44806;48.008;13.666;2022-09-24T06:54:23;9.90;99.90
59025;DHT22;44806;48.008;13.666;2022-09-24T06:56:53;10.00;99.90
59025;DHT22;44806;48.008;13.666;2022-09-24T06:59:20;10.00;99.90
59025;DHT22;44806;48.008;13.666;2022-09-24T07:01:49;10.00;99.90
59025;DHT22;44806;48.008;13.666;2022-09-24T07:04:17;10.10;99.90
59025;DHT22;44806;48.008;13.666;2022-09-24T07:06:44;10.20;99.90
59025;DHT22;44806;48.008;13.666;2022-09-24T07:09:30;10.30;99.90
59025;DHT22;44806;48.008;13.666;2022-09-24T07:11:58;10.30;99.90
59025;DHT22;44806;48.008;13.666;2022-09-24T07:14:26;10.30;99.90
59025;DHT22;44806;48.008;13.666;2022-09-24T07:16:54;10.40;99.90
59025;DHT22;44806;48.008;13.666;2022-09-24T07:19:21;10.40;99.90
59025;DHT22;44806;48.008;13.666;2022-09-24T07:21:49;10.50;99.90
59025;DHT22;44806;48.008;13.666;2022-09-24T07:24:16;10.50;99.90
59025;DHT22;44806;48.008;13.666;2022-09-24T07:26:43;10.60;99.90
59025;DHT22;44806;48.008;13.666;2022-09-24T07:29:11;10.70;99.90
59025;DHT22;44806;48.008;13.666;2022-09-24T07:31:38;10.70;99.90
59025;DHT22;44806;48.008;13.666;2022-09-24T07:34:07;10.80;99.90
59025;DHT22;44806;48.008;13.666;2022-09-24T07:36:34;11.00;99.90
59025;DHT22;44806;48.008;13.666;2022-09-24T07:39:01;11.10;99.90
59025;DHT22;44806;48.008;13.666;2022-09-24T07:41:29;11.20;99.90
59025;DHT22;44806;48.008;13.666;2022-09-24T07:43:57;11.20;99.90
59025;DHT22;44806;48.008;13.666;2022-09-24T07:46:25;11.40;99.90
59025;DHT22;44806;48.008;13.666;2022-09-24T07:48:52;11.40;99.90
59025;DHT22;44806;48.008;13.666;2022-09-24T07:51:22;11.50;99.90
59025;DHT22;44806;48.008;13.666;2022-09-24T07:53:52;11.50;99.90
59025;DHT22;44806;48.008;13.666;2022-09-24T07:56:19;11.50;99.90
59025;DHT22;44806;48.008;13.666;2022-09-24T07:58:47;11.60;99.90
59025;DHT22;44806;48.008;13.666;2022-09-24T08:01:14;11.70;99.90
59025;DHT22;44806;48.008;13.666;2022-09-24T08:03:43;11.80;99.90
59025;DHT22;44806;48.008;13.666;2022-09-24T08:06:11;11.80;99.90
59025;DHT22;44806;48.008;13.666;2022-09-24T08:08:40;11.90;99.90
59025;DHT22;44806;48.008;13.666;2022-09-24T08:11:10;12.00;99.90
59025;DHT22;44806;48.008;13.666;2022-09-24T08:13:38;12.00;99.90
59025;DHT22;44806;48.008;13.666;2022-09-24T08:16:05;12.10;99.90
59025;DHT22;44806;48.008;13.666;2022-09-24T08:18:33;12.10;99.90
59025;DHT22;44806;48.008;13.666;2022-09-24T08:21:03;12.20;99.90
59025;DHT22;44806;48.008;13.666;2022-09-24T08:23:31;12.20;99.90
59025;DHT22;44806;48.008;13.666;2022-09-24T08:25:59;12.30;99.90
59025;DHT22;44806;48.008;13.666;2022-09-24T08:28:26;12.40;99.90
59025;DHT22;44806;48.008;13.666;2022-09-24T08:30:56;12.50;99.90
59025;DHT22;44806;48.008;13.666;2022-09-24T08:33:23;12.50;99.90
59025;DHT22;44806;48.008;13.666;2022-09-24T08:35:51;12.70;99.90
59025;DHT22;44806;48.008;13.666;2022-09-24T08:38:18;12.90;99.90
59025;DHT22;44806;48.008;13.666;2022-09-24T08:40:51;13.00;99.90
59025;DHT22;44806;48.008;13.666;2022-09-24T08:43:33;13.00;99.90
59025;DHT22;44806;48.008;13.666;2022-09-24T08:46:11;13.30;99.90
59025;DHT22;44806;48.008;13.666;2022-09-24T08:48:58;13.40;99.90
59025;DHT22;44806;48.008;13.666;2022-09-24T08:51:28;13.50;99.90
59025;DHT22;44806;48.008;13.666;2022-09-24T08:54:04;13.50;99.90
59025;DHT22;44806;48.008;13.666;2022-09-24T08:56:35;13.50;99.90
59025;DHT22;44806;48.008;13.666;2022-09-24T08:59:13;13.60;99.90
59025;DHT22;44806;48.008;13.666;2022-09-24T09:01:46;13.70;99.90
59025;DHT22;44806;48.008;13.666;2022-09-24T09:04:23;13.80;99.90
59025;DHT22;44806;48.008;13.666;2022-09-24T09:07:07;13.90;99.90
59025;DHT22;44806;48.008;13.666;2022-09-24T09:09:44;14.00;99.90
59025;DHT22;44806;48.008;13.666;2022-09-24T09:12:16;14.00;99.90
59025;DHT22;44806;48.008;13.666;2022-09-24T09:14:50;14.20;99.90
59025;DHT22;44806;48.008;13.666;2022-09-24T09:17:28;14.30;99.90
59025;DHT22;44806;48.008;13.666;2022-09-24T09:19:59;14.40;99.90
59025;DHT22;44806;48.008;13.666;2022-09-24T09:22:31;14.50;99.90
59025;DHT22;44806;48.008;13.666;2022-09-24T09:25:08;14.60;99.90
59025;DHT22;44806;48.008;13.666;2022-09-24T09:27:37;14.60;99.90
59025;DHT22;44806;48.008;13.666;2022-09-24T09:30:19;14.70;99.90
59025;DHT22;44806;48.008;13.666;2022-09-24T09:33:05;14.80;99.90
59025;DHT22;44806;48.008;13.666;2022-09-24T09:35:39;14.80;99.90
59025;DHT22;44806;48.008;13.666;2022-09-24T09:38:16;14.90;99.90
59025;DHT22;44806;48.008;13.666;2022-09-24T09:40:51;15.00;99.90
59025;DHT22;44806;48.008;13.666;2022-09-24T09:43:23;15.10;99.90
59025;DHT22;44806;48.008;13.666;2022-09-24T09:46:01;15.10;99.90
59025;DHT22;44806;48.008;13.666;2022-09-24T09:48:41;15.20;99.90
59025;DHT22;44806;48.008;13.666;2022-09-24T09:51:15;15.30;99.90
59025;DHT22;44806;48.008;13.666;2022-09-24T09:53:53;15.40;99.90
59025;DHT22;44806;48.008;13.666;2022-09-24T09:56:22;15.40;99.90
59025;DHT22;44806;48.008;13.666;2022-09-24T09:58:50;15.50;99.90
59025;DHT22;44806;48.008;13.666;2022-09-24T10:01:30;15.50;99.90
59025;DHT22;44806;48.008;13.666;2022-09-24T10:03:58;15.60;99.90
59025;DHT22;44806;48.008;13.666;2022-09-24T10:06:34;15.70;99.90
59025;DHT22;44806;48.008;13.666;2022-09-24T10:09:11;15.70;99.90
59025;DHT22;44806;48.008;13.666;2022-09-24T10:11:39;15.70;99.90
59025;DHT22;44806;48.008;13.666;2022-09-24T10:14:10;15.70;99.90
59025;DHT22;44806;48.008;13.666;2022-09-24T10:16:40;15.70;99.90
59025;DHT22;44806;48.008;13.666;2022-09-24T10:19:15;15.70;99.90
59025;DHT22;44806;48.008;13.666;2022-09-24T10:21:44;15.80;99.90
59025;DHT22;44806;48.008;13.666;2022-09-24T10:24:14;15.80;99.90
59025;DHT22;44806;48.008;13.666;2022-09-24T10:26:44;15.90;99.90
59025;DHT22;44806;48.008;13.666;2022-09-24T10:29:15;16.00;99.90
59025;DHT22;44806;48.008;13.666;2022-09-24T10:32:02;16.00;99.90
59025;DHT22;44806;48.008;13.666;2022-09-24T10:34:30;16.00;99.90
59025;DHT22;44806;48.008;13.666;2022-09-24T10:37:01;16.10;99.90
59025;DHT22;44806;48.008;13.666;2022-09-24T10:39:31;16.20;99.90
59025;DHT22;44806;48.008;13.666;2022-09-24T10:41:58;16.20;99.40
59025;DHT22;44806;48.008;13.666;2022-09-24T10:44:35;16.20;99.80
59025;DHT22;44806;48.008;13.666;2022-09-24T10:47:24;16.20;98.70
59025;DHT22;44806;48.008;13.666;2022-09-24T10:50:14;16.30;99.40
59025;DHT22;44806;48.008;13.666;2022-09-24T10:52:48;16.30;99.10
59025;DHT22;44806;48.008;13.666;2022-09-24T10:55:25;16.30;99.50
59025;DHT22;44806;48.008;13.666;2022-09-24T10:58:00;16.30;99.20
59025;DHT22;44806;48.008;13.666;2022-09-24T11:00:36;16.40;99.30
59025;DHT22;44806;48.008;13.666;2022-09-24T11:03:39;16.30;99.90
59025;DHT22;44806;48.008;13.666;2022-09-24T11:06:16;16.20;99.90
59025;DHT22;44806;48.008;13.666;2022-09-24T11:09:02;16.20;99.90
59025;DHT22;44806;48.008;13.666;2022-09-24T11:11:39;16.20;99.90
59025;DHT22;44806;48.008;13.666;2022-09-24T11:14:23;16.30;99.90
59025;DHT22;44806;48.008;13.666;2022-09-24T11:17:11;16.30;99.90
59025;DHT22;44806;48.008;13.666;2022-09-24T11:22:51;16.40;99.90
59025;DHT22;44806;48.008;13.666;2022-09-24T11:25:30;16.30;99.70
59025;DHT22;44806;48.008;13.666;2022-09-24T11:28:27;16.30;99.90
59025;DHT22;44806;48.008;13.666;2022-09-24T11:31:03;16.30;99.90
59025;DHT22;44806;48.008;13.666;2022-09-24T11:33:51;16.40;99.50
59025;DHT22;44806;48.008;13.666;2022-09-24T11:36:34;16.50;99.90
59025;DHT22;44806;48.008;13.666;2022-09-24T11:39:17;16.70;99.90
59025;DHT22;44806;48.008;13.666;2022-09-24T11:41:54;16.70;99.90
59025;DHT22;44806;48.008;13.666;2022-09-24T11:44:51;16.80;99.90
59025;DHT22;44806;48.008;13.666;2022-09-24T11:47:35;16.90;99.90
59025;DHT22;44806;48.008;13.666;2022-09-24T11:50:18;17.00;99.40
59025;DHT22;44806;48.008;13.666;2022-09-24T11:52:51;17.20;99.10
59025;DHT22;44806;48.008;13.666;2022-09-24T11:55:23;17.30;98.60
59025;DHT22;44806;48.008;13.666;2022-09-24T11:58:03;17.40;98.80
59025;DHT22;44806;48.008;13.666;2022-09-24T12:00:39;17.40;98.00
59025;DHT22;44806;48.008;13.666;2022-09-24T12:03:17;17.40;98.50
59025;DHT22;44806;48.008;13.666;2022-09-24T12:05:51;17.40;98.40
59025;DHT22;44806;48.008;13.666;2022-09-24T12:08:25;17.50;98.20
59025;DHT22;44806;48.008;13.666;2022-09-24T12:10:57;17.60;98.80
59025;DHT22;44806;48.008;13.666;2022-09-24T12:13:31;17.60;98.00
59025;DHT22;44806;48.008;13.666;2022-09-24T12:16:07;17.70;97.90
59025;DHT22;44806;48.008;13.666;2022-09-24T12:18:41;17.60;98.50
59025;DHT22;44806;48.008;13.666;2022-09-24T12:21:17;17.60;98.10
59025;DHT22;44806;48.008;13.666;2022-09-24T12:23:47;17.50;97.50
59025;DHT22;44806;48.008;13.666;2022-09-24T12:26:17;17.60;99.90
59025;DHT22;44806;48.008;13.666;2022-09-24T12:28:52;17.60;98.20
59025;DHT22;44806;48.008;13.666;2022-09-24T12:31:46;17.70;98.60
59025;DHT22;44806;48.008;13.666;2022-09-24T12:34:39;17.80;98.40
59025;DHT22;44806;48.008;13.666;2022-09-24T12:37:09;17.70;98.80
59025;DHT22;44806;48.008;13.666;2022-09-24T12:39:44;17.80;98.50
59025;DHT22;44806;48.008;13.666;2022-09-24T12:42:14;17.90;99.10
59025;DHT22;44806;48.008;13.666;2022-09-24T12:44:44;17.90;98.80
59025;DHT22;44806;48.008;13.666;2022-09-24T12:47:16;18.00;98.50
59025;DHT22;44806;48.008;13.666;2022-09-24T12:49:48;18.10;98.20
59025;DHT22;44806;48.008;13.666;2022-09-24T12:52:20;18.20;98.30
59025;DHT22;44806;48.008;13.666;2022-09-24T12:54:55;18.30;97.60
59025;DHT22;44806;48.008;13.666;2022-09-24T12:57:26;18.30;97.30
59025;DHT22;44806;48.008;13.666;2022-09-24T12:59:57;18.40;97.90
59025;DHT22;44806;48.008;13.666;2022-09-24T13:02:27;18.40;97.40
59025;DHT22;44806;48.008;13.666;2022-09-24T13:05:14;18.30;97.10
59025;DHT22;44806;48.008;13.666;2022-09-24T13:07:52;18.30;98.20
59025;DHT22;44806;48.008;13.666;2022-09-24T13:10:24;18.30;97.40
59025;DHT22;44806;48.008;13.666;2022-09-24T13:12:52;18.40;97.00
59025;DHT22;44806;48.008;13.666;2022-09-24T13:15:25;18.40;97.20
59025;DHT22;44806;48.008;13.666;2022-09-24T13:18:19;18.50;98.00
59025;DHT22;44806;48.008;13.666;2022-09-24T13:21:00;18.60;96.40
59025;DHT22;44806;48.008;13.666;2022-09-24T13:23:41;18.60;95.80
59025;DHT22;44806;48.008;13.666;2022-09-24T13:26:25;18.60;95.90
59025;DHT22;44806;48.008;13.666;2022-09-24T13:28:54;18.50;95.40
59025;DHT22;44806;48.008;13.666;2022-09-24T13:31:32;18.60;95.90
59025;DHT22;44806;48.008;13.666;2022-09-24T13:34:05;18.70;96.80
59025;DHT22;44806;48.008;13.666;2022-09-24T13:36:43;18.70;97.20
59025;DHT22;44806;48.008;13.666;2022-09-24T13:39:14;18.80;96.50
59025;DHT22;44806;48.008;13.666;2022-09-24T13:41:50;18.80;96.80
59025;DHT22;44806;48.008;13.666;2022-09-24T13:44:25;18.80;96.60
59025;DHT22;44806;48.008;13.666;2022-09-24T13:46:57;18.80;96.10
59025;DHT22;44806;48.008;13.666;2022-09-24T13:49:26;18.80;96.00
59025;DHT22;44806;48.008;13.666;2022-09-24T13:52:08;18.80;96.60
59025;DHT22;44806;48.008;13.666;2022-09-24T13:54:46;18.80;96.30
59025;DHT22;44806;48.008;13.666;2022-09-24T13:57:20;18.80;96.10
59025;DHT22;44806;48.008;13.666;2022-09-24T13:59:49;18.80;95.80
59025;DHT22;44806;48.008;13.666;2022-09-24T14:02:27;18.80;96.20
59025;DHT22;44806;48.008;13.666;2022-09-24T14:04:59;18.80;96.10
59025;DHT22;44806;48.008;13.666;2022-09-24T14:07:29;18.80;96.80
59025;DHT22;44806;48.008;13.666;2022-09-24T14:10:05;18.80;96.00
59025;DHT22;44806;48.008;13.666;2022-09-24T14:12:34;18.70;96.10
59025;DHT22;44806;48.008;13.666;2022-09-24T14:15:08;18.80;96.90
59025;DHT22;44806;48.008;13.666;2022-09-24T14:17:36;18.80;96.60
59025;DHT22;44806;48.008;13.666;2022-09-24T14:20:04;18.80;96.10
59025;DHT22;44806;48.008;13.666;2022-09-24T14:22:34;18.80;95.70
59025;DHT22;44806;48.008;13.666;2022-09-24T14:25:05;18.80;96.00
59025;DHT22;44806;48.008;13.666;2022-09-24T14:27:35;18.70;96.50
59025;DHT22;44806;48.008;13.666;2022-09-24T14:30:16;18.60;97.40
59025;DHT22;44806;48.008;13.666;2022-09-24T14:32:44;18.60;97.50
59025;DHT22;44806;48.008;13.666;2022-09-24T14:35:17;18.50;97.70
59025;DHT22;44806;48.008;13.666;2022-09-24T14:37:47;18.50;97.70
59025;DHT22;44806;48.008;13.666;2022-09-24T14:40:17;18.40;97.50
59025;DHT22;44806;48.008;13.666;2022-09-24T14:42:47;18.30;98.00
59025;DHT22;44806;48.008;13.666;2022-09-24T14:45:18;18.20;98.60
59025;DHT22;44806;48.008;13.666;2022-09-24T14:47:47;18.20;99.00
59025;DHT22;44806;48.008;13.666;2022-09-24T14:50:30;18.20;98.70
59025;DHT22;44806;48.008;13.666;2022-09-24T14:53:01;18.20;98.30
59025;DHT22;44806;48.008;13.666;2022-09-24T14:55:36;18.10;98.30
59025;DHT22;44806;48.008;13.666;2022-09-24T14:58:21;18.20;99.20
59025;DHT22;44806;48.008;13.666;2022-09-24T15:00:50;18.10;99.20
59025;DHT22;44806;48.008;13.666;2022-09-24T15:03:26;18.00;99.10
59025;DHT22;44806;48.008;13.666;2022-09-24T15:06:05;18.00;99.50
59025;DHT22;44806;48.008;13.666;2022-09-24T15:08:33;17.90;99.30
59025;DHT22;44806;48.008;13.666;2022-09-24T15:11:03;17.90;99.70
59025;DHT22;44806;48.008;13.666;2022-09-24T15:13:34;17.80;99.50
59025;DHT22;44806;48.008;13.666;2022-09-24T15:16:15;17.70;99.70
59025;DHT22;44806;48.008;13.666;2022-09-24T15:18:43;17.80;99.90
59025;DHT22;44806;48.008;13.666;2022-09-24T15:21:10;17.80;99.90
59025;DHT22;44806;48.008;13.666;2022-09-24T15:23:38;17.80;99.90
59025;DHT22;44806;48.008;13.666;2022-09-24T15:26:05;17.70;99.90
59025;DHT22;44806;48.008;13.666;2022-09-24T15:28:34;17.70;99.90
59025;DHT22;44806;48.008;13.666;2022-09-24T15:31:01;17.70;99.90
59025;DHT22;44806;48.008;13.666;2022-09-24T15:33:28;17.60;99.90
59025;DHT22;44806;48.008;13.666;2022-09-24T15:35:55;17.60;99.90
59025;DHT22;44806;48.008;13.666;2022-09-24T15:38:22;17.60;99.90
59025;DHT22;44806;48.008;13.666;2022-09-24T15:40:50;17.50;99.90
59025;DHT22;44806;48.008;13.666;2022-09-24T15:43:19;17.50;99.90
59025;DHT22;44806;48.008;13.666;2022-09-24T15:45:49;17.40;99.90
59025;DHT22;44806;48.008;13.666;2022-09-24T15:48:16;17.50;99.90
59025;DHT22;44806;48.008;13.666;2022-09-24T15:50:45;17.50;99.90
59025;DHT22;44806;48.008;13.666;2022-09-24T15:53:17;17.50;99.90